Portada
METAR-TAF:

METAR-TAF

Aeroports :

Base aèria Cameri

Novara, Itàlia

latitud: 45-31N, longitud: 008-40E, altitud: 178 m

Observació

L'informe es va fer fa 23 hores i 43 minuts, a les 17:55 UTC
Vent 2 kt del Oest
Temperatura 4°C
Humitat 87%
Pressió 1022 hPa
Visibilitat: 6000 m
Cel ennuvolat a una alçada de 4500 ft

METAR: LIMN 061755Z 27002KT 6000 BKN045 04/02 Q1022 RMK BKN VIS MIN 6000 WHT

Hora: 18:38 (17:38 UTC)

Pronòstic

L'informe es va fer fa 38 minuts, a les 17:00 UTC
Pronòstic vàlid del 06 a les 18 UTC al 07 a les 03 UTC
Vent 3 kt amb direcció variable
Visibilitat: 5000 m
boirina
Temporalment
l' 06 a les 21 UTC al 07 a les 03 UTC
Visibilitat: 3000 m
Núvols disperses a una alçada de 5000 ft
boirina

TAF: LIMN 061700Z 0618/0703 VRB03KT 5000 BR NSC TEMPO 0621/0703 3000 BR SCT050

Observacions i pronòstics meteorològics de més de 4000 aeroports (METAR i TAF).

Les estacions disponibles són els punts grocs i vermells al mapa.

Posi el ratolí al punt desitjat per veure el nom de l'estació.

Feu clic per veure les observacions i els pronòstics meteorològics.

Per canviar el mapa: feu clic els botons verds amb una creu de color negre per apropar; al botó verd amb un guió per allunyar la imatge; o en les fletxes verdes per a mapes adjacents.


METAR-TAF: